sensor_id;sensor_type;location;lat;lon;timestamp;pressure;altitude;pressure_sealevel;temperature;humidity
35778;BME280;21899;42.662;23.316;2023-01-29T00:00:35;94474.34;;;-0.41;100.00
35778;BME280;21899;42.662;23.316;2023-01-29T00:03:01;94472.97;;;-0.30;100.00
35778;BME280;21899;42.662;23.316;2023-01-29T00:05:26;94483.72;;;-0.15;100.00
35778;BME280;21899;42.662;23.316;2023-01-29T00:07:52;94474.78;;;-0.14;100.00
35778;BME280;21899;42.662;23.316;2023-01-29T00:10:17;94483.84;;;-0.03;100.00
35778;BME280;21899;42.662;23.316;2023-01-29T00:12:42;94486.94;;;-0.01;100.00
35778;BME280;21899;42.662;23.316;2023-01-29T00:15:08;94490.22;;;-0.04;100.00
35778;BME280;21899;42.662;23.316;2023-01-29T00:17:33;94484.47;;;-0.06;100.00
35778;BME280;21899;42.662;23.316;2023-01-29T00:19:59;94488.97;;;-0.06;100.00
35778;BME280;21899;42.662;23.316;2023-01-29T00:22:24;94488.34;;;-0.12;100.00
35778;BME280;21899;42.662;23.316;2023-01-29T00:24:50;94492.38;;;-0.06;100.00
35778;BME280;21899;42.662;23.316;2023-01-29T00:27:15;94492.53;;;-0.11;100.00
35778;BME280;21899;42.662;23.316;2023-01-29T00:29:40;94493.41;;;0.02;100.00
35778;BME280;21899;42.662;23.316;2023-01-29T00:32:06;94491.59;;;-0.06;100.00
35778;BME280;21899;42.662;23.316;2023-01-29T00:34:31;94493.00;;;-0.09;100.00
35778;BME280;21899;42.662;23.316;2023-01-29T00:36:56;94484.50;;;-0.14;100.00
35778;BME280;21899;42.662;23.316;2023-01-29T00:39:31;94487.31;;;-0.19;100.00
35778;BME280;21899;42.662;23.316;2023-01-29T00:42:05;94496.44;;;-0.17;100.00
35778;BME280;21899;42.662;23.316;2023-01-29T00:44:49;94492.38;;;-0.06;100.00
35778;BME280;21899;42.662;23.316;2023-01-29T00:47:23;94499.00;;;0.00;100.00
35778;BME280;21899;42.662;23.316;2023-01-29T00:49:55;94492.88;;;-0.12;100.00
35778;BME280;21899;42.662;23.316;2023-01-29T00:52:20;94490.81;;;-0.07;100.00
35778;BME280;21899;42.662;23.316;2023-01-29T00:54:49;94496.53;;;-0.05;100.00
35778;BME280;21899;42.662;23.316;2023-01-29T00:57:15;94496.53;;;-0.05;100.00
35778;BME280;21899;42.662;23.316;2023-01-29T00:59:40;94501.06;;;-0.14;100.00
35778;BME280;21899;42.662;23.316;2023-01-29T01:02:05;94496.25;;;-0.12;100.00
35778;BME280;21899;42.662;23.316;2023-01-29T01:04:49;94495.50;;;-0.12;100.00
35778;BME280;21899;42.662;23.316;2023-01-29T01:07:15;94494.41;;;-0.11;100.00
35778;BME280;21899;42.662;23.316;2023-01-29T01:09:40;94504.13;;;-0.12;100.00
35778;BME280;21899;42.662;23.316;2023-01-29T01:12:24;94490.56;;;-0.22;100.00
35778;BME280;21899;42.662;23.316;2023-01-29T01:14:49;94494.09;;;-0.10;100.00
35778;BME280;21899;42.662;23.316;2023-01-29T01:17:15;94494.28;;;-0.23;100.00
35778;BME280;21899;42.662;23.316;2023-01-29T01:19:42;94493.97;;;-0.22;100.00
35778;BME280;21899;42.662;23.316;2023-01-29T01:22:07;94470.16;;;-0.25;100.00
35778;BME280;21899;42.662;23.316;2023-01-29T01:24:32;94484.50;;;-0.14;100.00
35778;BME280;21899;42.662;23.316;2023-01-29T01:26:58;94481.56;;;-0.13;100.00
35778;BME280;21899;42.662;23.316;2023-01-29T01:29:23;94484.19;;;-0.13;100.00
35778;BME280;21899;42.662;23.316;2023-01-29T01:31:49;94486.81;;;-0.13;100.00
35778;BME280;21899;42.662;23.316;2023-01-29T01:34:14;94497.66;;;-0.14;100.00
35778;BME280;21899;42.662;23.316;2023-01-29T01:36:40;94490.09;;;-0.24;100.00
35778;BME280;21899;42.662;23.316;2023-01-29T01:39:05;94482.19;;;-0.16;100.00
35778;BME280;21899;42.662;23.316;2023-01-29T01:41:31;94494.88;;;-0.09;100.00
35778;BME280;21899;42.662;23.316;2023-01-29T01:43:58;94491.63;;;-0.15;100.00
35778;BME280;21899;42.662;23.316;2023-01-29T01:46:32;94497.50;;;-0.09;100.00
35778;BME280;21899;42.662;23.316;2023-01-29T01:51:27;94496.84;;;-0.06;100.00
35778;BME280;21899;42.662;23.316;2023-01-29T01:54:11;94499.16;;;-0.05;100.00
35778;BME280;21899;42.662;23.316;2023-01-29T01:56:41;94497.19;;;-0.08;100.00
35778;BME280;21899;42.662;23.316;2023-01-29T01:59:13;94499.50;;;-0.06;100.00
35778;BME280;21899;42.662;23.316;2023-01-29T02:01:42;94504.44;;;-0.05;100.00
35778;BME280;21899;42.662;23.316;2023-01-29T02:04:28;94507.41;;;-0.15;100.00
35778;BME280;21899;42.662;23.316;2023-01-29T02:07:14;94510.81;;;-0.14;100.00
35778;BME280;21899;42.662;23.316;2023-01-29T02:10:09;94510.38;;;-0.25;100.00
35778;BME280;21899;42.662;23.316;2023-01-29T02:12:37;94506.06;;;-0.38;100.00
35778;BME280;21899;42.662;23.316;2023-01-29T02:15:03;94508.69;;;-0.38;100.00
35778;BME280;21899;42.662;23.316;2023-01-29T02:17:28;94500.66;;;-0.41;100.00
35778;BME280;21899;42.662;23.316;2023-01-29T02:34:05;94528.75;;;-0.08;100.00
35778;BME280;21899;42.662;23.316;2023-01-29T02:39:29;94528.75;;;-0.08;100.00
35778;BME280;21899;42.662;23.316;2023-01-29T02:42:31;94532.63;;;-0.14;100.00
35778;BME280;21899;42.662;23.316;2023-01-29T02:45:07;94529.06;;;-0.09;100.00
35778;BME280;21899;42.662;23.316;2023-01-29T02:50:20;94528.00;;;-0.17;100.00
35778;BME280;21899;42.662;23.316;2023-01-29T02:58:50;94534.03;;;-0.16;100.00
35778;BME280;21899;42.662;23.316;2023-01-29T03:01:27;94533.88;;;-0.20;100.00
35778;BME280;21899;42.662;23.316;2023-01-29T03:03:59;94536.19;;;-0.18;100.00
35778;BME280;21899;42.662;23.316;2023-01-29T03:06:34;94525.22;;;-0.20;100.00
35778;BME280;21899;42.662;23.316;2023-01-29T03:09:41;94531.88;;;-0.23;100.00
35778;BME280;21899;42.662;23.316;2023-01-29T03:12:21;94532.03;;;-0.28;100.00
35778;BME280;21899;42.662;23.316;2023-01-29T03:15:12;94526.31;;;-0.30;100.00
35778;BME280;21899;42.662;23.316;2023-01-29T03:17:46;94531.13;;;-0.32;100.00
35778;BME280;21899;42.662;23.316;2023-01-29T03:20:17;94525.25;;;-0.37;100.00
35778;BME280;21899;42.662;23.316;2023-01-29T03:22:52;94543.34;;;-0.36;100.00
35778;BME280;21899;42.662;23.316;2023-01-29T03:25:21;94543.97;;;-0.30;100.00
35778;BME280;21899;42.662;23.316;2023-01-29T03:28:11;94545.03;;;-0.31;100.00
35778;BME280;21899;42.662;23.316;2023-01-29T03:31:00;94536.53;;;-0.28;100.00
35778;BME280;21899;42.662;23.316;2023-01-29T03:34:08;94550.13;;;-0.26;100.00
35778;BME280;21899;42.662;23.316;2023-01-29T03:36:45;94544.88;;;-0.26;100.00
35778;BME280;21899;42.662;23.316;2023-01-29T03:39:15;94532.50;;;-0.34;100.00
35778;BME280;21899;42.662;23.316;2023-01-29T03:42:02;94544.28;;;-0.32;100.00
35778;BME280;21899;42.662;23.316;2023-01-29T03:44:43;94550.91;;;-0.26;100.00
35778;BME280;21899;42.662;23.316;2023-01-29T03:47:16;94541.81;;;-0.28;100.00
35778;BME280;21899;42.662;23.316;2023-01-29T03:49:58;94538.53;;;-0.25;100.00
35778;BME280;21899;42.662;23.316;2023-01-29T03:52:42;94543.78;;;-0.17;100.00
35778;BME280;21899;42.662;23.316;2023-01-29T03:57:50;94535.59;;;-0.24;100.00
35778;BME280;21899;42.662;23.316;2023-01-29T04:00:34;94540.38;;;-0.17;100.00
35778;BME280;21899;42.662;23.316;2023-01-29T04:03:22;94534.81;;;-0.16;100.00
35778;BME280;21899;42.662;23.316;2023-01-29T04:06:12;94544.06;;;-0.10;100.00
35778;BME280;21899;42.662;23.316;2023-01-29T04:08:51;94546.44;;;-0.17;100.00
35778;BME280;21899;42.662;23.316;2023-01-29T04:11:19;94542.56;;;-0.28;100.00
35778;BME280;21899;42.662;23.316;2023-01-29T04:13:46;94543.63;;;-0.20;100.00
35778;BME280;21899;42.662;23.316;2023-01-29T04:16:17;94542.22;;;-0.18;100.00
35778;BME280;21899;42.662;23.316;2023-01-29T04:18:46;94550.28;;;-0.23;100.00
35778;BME280;21899;42.662;23.316;2023-01-29T04:21:13;94552.44;;;-0.25;100.00
35778;BME280;21899;42.662;23.316;2023-01-29T04:23:39;94548.28;;;-0.26;100.00
35778;BME280;21899;42.662;23.316;2023-01-29T04:35:05;94560.53;;;-0.38;100.00
35778;BME280;21899;42.662;23.316;2023-01-29T04:37:44;94555.44;;;-0.43;100.00
35778;BME280;21899;42.662;23.316;2023-01-29T04:40:30;94560.22;;;-0.45;100.00
35778;BME280;21899;42.662;23.316;2023-01-29T04:43:31;94558.97;;;-0.48;100.00
35778;BME280;21899;42.662;23.316;2023-01-29T04:51:09;94560.22;;;-0.37;100.00
35778;BME280;21899;42.662;23.316;2023-01-29T04:54:05;94559.28;;;-0.41;100.00
35778;BME280;21899;42.662;23.316;2023-01-29T04:56:45;94564.53;;;-0.41;100.00
35778;BME280;21899;42.662;23.316;2023-01-29T04:59:18;94560.22;;;-0.37;100.00
35778;BME280;21899;42.662;23.316;2023-01-29T05:01:46;94560.81;;;-0.40;100.00
35778;BME280;21899;42.662;23.316;2023-01-29T05:04:15;94569.78;;;-0.41;100.00
35778;BME280;21899;42.662;23.316;2023-01-29T05:06:42;94566.69;;;-0.43;100.00
35778;BME280;21899;42.662;23.316;2023-01-29T05:09:12;94558.53;;;-0.50;100.00
35778;BME280;21899;42.662;23.316;2023-01-29T05:11:39;94565.16;;;-0.44;100.00
35778;BME280;21899;42.662;23.316;2023-01-29T05:14:06;94574.16;;;-0.45;100.00
35778;BME280;21899;42.662;23.316;2023-01-29T05:16:51;94573.53;;;-0.42;100.00
35778;BME280;21899;42.662;23.316;2023-01-29T05:19:17;94565.94;;;-0.52;100.00
35778;BME280;21899;42.662;23.316;2023-01-29T05:21:45;94570.72;;;-0.45;100.00
35778;BME280;21899;42.662;23.316;2023-01-29T05:24:18;94575.06;;;-0.41;100.00
35778;BME280;21899;42.662;23.316;2023-01-29T05:26:46;94576.78;;;-0.45;100.00
35778;BME280;21899;42.662;23.316;2023-01-29T05:29:30;94576.16;;;-0.42;100.00
35778;BME280;21899;42.662;23.316;2023-01-29T05:31:56;94576.59;;;-0.40;100.00
35778;BME280;21899;42.662;23.316;2023-01-29T05:34:21;94584.94;;;-0.38;100.00
35778;BME280;21899;42.662;23.316;2023-01-29T05:36:47;94585.25;;;-0.39;100.00
35778;BME280;21899;42.662;23.316;2023-01-29T05:39:12;94588.50;;;-0.34;100.00
35778;BME280;21899;42.662;23.316;2023-01-29T05:41:38;94580.78;;;-0.39;100.00
35778;BME280;21899;42.662;23.316;2023-01-29T05:44:03;94580.16;;;-0.36;100.00
35778;BME280;21899;42.662;23.316;2023-01-29T05:46:29;94597.94;;;-0.16;100.00
35778;BME280;21899;42.662;23.316;2023-01-29T05:48:54;94599.00;;;-0.08;100.00
35778;BME280;21899;42.662;23.316;2023-01-29T05:51:19;94598.53;;;-0.02;100.00
35778;BME280;21899;42.662;23.316;2023-01-29T05:53:45;94589.09;;;-0.11;100.00
35778;BME280;21899;42.662;23.316;2023-01-29T05:56:10;94588.94;;;-0.15;100.00
35778;BME280;21899;42.662;23.316;2023-01-29T05:58:36;94604.25;;;-0.08;100.00
35778;BME280;21899;42.662;23.316;2023-01-29T06:01:16;94607.69;;;-0.16;100.00
35778;BME280;21899;42.662;23.316;2023-01-29T06:03:43;94599.31;;;-0.18;100.00
35778;BME280;21899;42.662;23.316;2023-01-29T06:06:09;94610.16;;;-0.11;100.00
35778;BME280;21899;42.662;23.316;2023-01-29T06:08:34;94609.25;;;-0.15;100.00
35778;BME280;21899;42.662;23.316;2023-01-29T06:10:59;94609.84;;;-0.18;100.00
35778;BME280;21899;42.662;23.316;2023-01-29T06:13:25;94619.44;;;-0.14;100.00
35778;BME280;21899;42.662;23.316;2023-01-29T06:15:50;94626.09;;;-0.08;100.00
35778;BME280;21899;42.662;23.316;2023-01-29T06:18:16;94622.81;;;-0.05;100.00
35778;BME280;21899;42.662;23.316;2023-01-29T06:20:41;94630.41;;;0.06;100.00
35778;BME280;21899;42.662;23.316;2023-01-29T06:23:07;94620.50;;;0.03;100.00
35778;BME280;21899;42.662;23.316;2023-01-29T06:25:32;94629.03;;;0.08;100.00
35778;BME280;21899;42.662;23.316;2023-01-29T06:27:57;94628.38;;;0.11;100.00
35778;BME280;21899;42.662;23.316;2023-01-29T06:30:23;94639.06;;;0.15;100.00
35778;BME280;21899;42.662;23.316;2023-01-29T06:32:48;94645.06;;;0.24;100.00
35778;BME280;21899;42.662;23.316;2023-01-29T06:35:14;94647.69;;;0.32;100.00
35778;BME280;21899;42.662;23.316;2023-01-29T06:37:39;94650.97;;;0.29;100.00
35778;BME280;21899;42.662;23.316;2023-01-29T06:40:05;94646.00;;;0.28;100.00
35778;BME280;21899;42.662;23.316;2023-01-29T06:42:31;94649.59;;;0.23;100.00
35778;BME280;21899;42.662;23.316;2023-01-29T06:44:56;94654.22;;;0.18;100.00
35778;BME280;21899;42.662;23.316;2023-01-29T06:47:22;94655.00;;;0.18;100.00
35778;BME280;21899;42.662;23.316;2023-01-29T06:49:48;94654.69;;;0.20;100.00
35778;BME280;21899;42.662;23.316;2023-01-29T06:52:14;94636.91;;;0.08;100.00
35778;BME280;21899;42.662;23.316;2023-01-29T06:54:39;94656.38;;;0.24;100.00
35778;BME280;21899;42.662;23.316;2023-01-29T06:57:04;94661.34;;;0.26;100.00
35778;BME280;21899;42.662;23.316;2023-01-29T06:59:30;94658.22;;;0.24;100.00
35778;BME280;21899;42.662;23.316;2023-01-29T07:01:55;94669.22;;;0.34;100.00
35778;BME280;21899;42.662;23.316;2023-01-29T07:04:21;94663.63;;;0.36;100.00
35778;BME280;21899;42.662;23.316;2023-01-29T07:06:46;94659.13;;;0.45;100.00
35778;BME280;21899;42.662;23.316;2023-01-29T07:09:12;94662.84;;;0.44;100.00
35778;BME280;21899;42.662;23.316;2023-01-29T07:11:38;94662.84;;;0.44;100.00
35778;BME280;21899;42.662;23.316;2023-01-29T07:14:04;94673.38;;;0.44;100.00
35778;BME280;21899;42.662;23.316;2023-01-29T07:16:31;94680.47;;;0.52;100.00
35778;BME280;21899;42.662;23.316;2023-01-29T07:18:56;94676.78;;;0.53;100.00
35778;BME280;21899;42.662;23.316;2023-01-29T07:21:22;94685.28;;;0.58;100.00
35778;BME280;21899;42.662;23.316;2023-01-29T07:23:47;94680.78;;;0.59;100.00
35778;BME280;21899;42.662;23.316;2023-01-29T07:26:13;94686.03;;;0.67;100.00
35778;BME280;21899;42.662;23.316;2023-01-29T07:28:39;94692.97;;;0.72;100.00
35778;BME280;21899;42.662;23.316;2023-01-29T07:31:05;94692.06;;;0.68;100.00
35778;BME280;21899;42.662;23.316;2023-01-29T07:33:31;94688.19;;;0.74;100.00
35778;BME280;21899;42.662;23.316;2023-01-29T07:35:56;94681.81;;;0.75;100.00
35778;BME280;21899;42.662;23.316;2023-01-29T07:38:22;94690.44;;;0.92;100.00
35778;BME280;21899;42.662;23.316;2023-01-29T07:40:47;94686.28;;;0.83;100.00
35778;BME280;21899;42.662;23.316;2023-01-29T07:43:14;94694.00;;;0.88;100.00
35778;BME280;21899;42.662;23.316;2023-01-29T07:45:40;94693.84;;;0.93;100.00
35778;BME280;21899;42.662;23.316;2023-01-29T07:48:08;94697.72;;;0.95;100.00
35778;BME280;21899;42.662;23.316;2023-01-29T07:50:34;94697.41;;;0.97;100.00
35778;BME280;21899;42.662;23.316;2023-01-29T07:53:00;94703.56;;;1.01;100.00
35778;BME280;21899;42.662;23.316;2023-01-29T07:55:25;94689.38;;;0.85;100.00
35778;BME280;21899;42.662;23.316;2023-01-29T07:58:01;94705.34;;;0.88;100.00
35778;BME280;21899;42.662;23.316;2023-01-29T08:00:27;94706.13;;;0.89;100.00
35778;BME280;21899;42.662;23.316;2023-01-29T08:02:56;94717.84;;;1.00;100.00
35778;BME280;21899;42.662;23.316;2023-01-29T08:05:25;94713.81;;;1.02;100.00
35778;BME280;21899;42.662;23.316;2023-01-29T08:07:53;94709.47;;;0.98;100.00
35778;BME280;21899;42.662;23.316;2023-01-29T08:10:19;94706.13;;;0.89;100.00
35778;BME280;21899;42.662;23.316;2023-01-29T08:12:44;94711.97;;;0.94;100.00
35778;BME280;21899;42.662;23.316;2023-01-29T08:15:10;94714.47;;;0.91;100.00
35778;BME280;21899;42.662;23.316;2023-01-29T08:17:35;94715.09;;;0.88;100.00
35778;BME280;21899;42.662;23.316;2023-01-29T08:20:04;94709.81;;;0.88;100.00
35778;BME280;21899;42.662;23.316;2023-01-29T08:22:31;94708.91;;;0.84;100.00
35778;BME280;21899;42.662;23.316;2023-01-29T08:24:56;94707.34;;;0.83;100.00
35778;BME280;21899;42.662;23.316;2023-01-29T08:27:21;94715.47;;;0.69;100.00
35778;BME280;21899;42.662;23.316;2023-01-29T08:29:47;94712.53;;;0.62;100.00
35778;BME280;21899;42.662;23.316;2023-01-29T08:32:12;94719.19;;;0.68;100.00
35778;BME280;21899;42.662;23.316;2023-01-29T08:34:38;94723.97;;;0.66;100.00
35778;BME280;21899;42.662;23.316;2023-01-29T08:37:03;94723.22;;;0.66;100.00
35778;BME280;21899;42.662;23.316;2023-01-29T08:39:29;94725.09;;;0.57;100.00
35778;BME280;21899;42.662;23.316;2023-01-29T08:41:54;94717.50;;;0.55;100.00
35778;BME280;21899;42.662;23.316;2023-01-29T08:44:19;94731.91;;;0.58;100.00
35778;BME280;21899;42.662;23.316;2023-01-29T08:46:45;94738.22;;;0.74;100.00
35778;BME280;21899;42.662;23.316;2023-01-29T08:49:10;94729.41;;;0.70;100.00
35778;BME280;21899;42.662;23.316;2023-01-29T08:51:35;94744.72;;;0.76;100.00
35778;BME280;21899;42.662;23.316;2023-01-29T08:54:01;94739.31;;;0.73;100.00
35778;BME280;21899;42.662;23.316;2023-01-29T08:56:26;94736.09;;;0.67;100.00
35778;BME280;21899;42.662;23.316;2023-01-29T08:58:52;94747.50;;;0.80;100.00
35778;BME280;21899;42.662;23.316;2023-01-29T09:01:17;94750.94;;;0.80;100.00
35778;BME280;21899;42.662;23.316;2023-01-29T09:03:42;94751.72;;;0.81;100.00
35778;BME280;21899;42.662;23.316;2023-01-29T09:06:12;94747.66;;;0.75;100.00
35778;BME280;21899;42.662;23.316;2023-01-29T09:08:40;94759.44;;;0.86;100.00
35778;BME280;21899;42.662;23.316;2023-01-29T09:11:05;94751.72;;;0.81;100.00
35778;BME280;21899;42.662;23.316;2023-01-29T09:13:32;94737.28;;;0.70;100.00
35778;BME280;21899;42.662;23.316;2023-01-29T09:15:59;94752.78;;;0.71;100.00
35778;BME280;21899;42.662;23.316;2023-01-29T09:18:24;94740.88;;;0.74;100.00
35778;BME280;21899;42.662;23.316;2023-01-29T09:20:52;94750.44;;;0.87;100.00
35778;BME280;21899;42.662;23.316;2023-01-29T09:23:17;94754.88;;;1.03;100.00
35778;BME280;21899;42.662;23.316;2023-01-29T09:25:43;94744.03;;;1.05;100.00
35778;BME280;21899;42.662;23.316;2023-01-29T09:28:08;94744.84;;;0.97;100.00
35778;BME280;21899;42.662;23.316;2023-01-29T09:30:33;94748.34;;;1.09;100.00
35778;BME280;21899;42.662;23.316;2023-01-29T09:33:02;94747.78;;;1.04;100.00
35778;BME280;21899;42.662;23.316;2023-01-29T09:35:28;94746.53;;;1.01;100.00
35778;BME280;21899;42.662;23.316;2023-01-29T09:37:53;94746.19;;;1.03;100.00
35778;BME280;21899;42.662;23.316;2023-01-29T09:43:15;94739.75;;;0.83;100.00
35778;BME280;21899;42.662;23.316;2023-01-29T09:48:37;94741.66;;;0.66;100.00
35778;BME280;21899;42.662;23.316;2023-01-29T09:51:11;94732.19;;;0.65;100.00
35778;BME280;21899;42.662;23.316;2023-01-29T09:53:44;94734.03;;;0.73;100.00
35778;BME280;21899;42.662;23.316;2023-01-29T09:56:15;94728.50;;;0.66;100.00
35778;BME280;21899;42.662;23.316;2023-01-29T09:58:43;94729.13;;;0.63;100.00
35778;BME280;21899;42.662;23.316;2023-01-29T10:25:39;94705.91;;;0.48;100.00
35778;BME280;21899;42.662;23.316;2023-01-29T10:28:23;94711.44;;;0.55;100.00
35778;BME280;21899;42.662;23.316;2023-01-29T10:30:53;94703.38;;;0.60;100.00
35778;BME280;21899;42.662;23.316;2023-01-29T10:33:34;94706.06;;;0.51;100.00
35778;BME280;21899;42.662;23.316;2023-01-29T10:36:06;94706.97;;;0.47;100.00
35778;BME280;21899;42.662;23.316;2023-01-29T10:38:34;94704.34;;;0.47;100.00
35778;BME280;21899;42.662;23.316;2023-01-29T10:41:05;94704.47;;;0.59;100.00
35778;BME280;21899;42.662;23.316;2023-01-29T10:52:08;94700.31;;;0.58;100.00
35778;BME280;21899;42.662;23.316;2023-01-29T11:00:11;94698.59;;;0.53;100.00
35778;BME280;21899;42.662;23.316;2023-01-29T11:02:46;94690.09;;;0.48;100.00
35778;BME280;21899;42.662;23.316;2023-01-29T11:07:44;94678.00;;;0.47;100.00
35778;BME280;21899;42.662;23.316;2023-01-29T11:10:13;94687.91;;;0.50;100.00
35778;BME280;21899;42.662;23.316;2023-01-29T11:12:42;94684.06;;;0.47;100.00
35778;BME280;21899;42.662;23.316;2023-01-29T11:17:36;94682.97;;;0.48;100.00
35778;BME280;21899;42.662;23.316;2023-01-29T11:20:05;94672.56;;;0.60;100.00
35778;BME280;21899;42.662;23.316;2023-01-29T11:22:33;94680.78;;;0.59;100.00
35778;BME280;21899;42.662;23.316;2023-01-29T11:25:15;94678.44;;;0.74;100.00
35778;BME280;21899;42.662;23.316;2023-01-29T11:27:48;94670.81;;;0.73;100.00
35778;BME280;21899;42.662;23.316;2023-01-29T11:30:38;94677.47;;;0.79;100.00
35778;BME280;21899;42.662;23.316;2023-01-29T11:33:25;94669.22;;;0.89;100.00
35778;BME280;21899;42.662;23.316;2023-01-29T11:35:51;94649.81;;;0.93;100.00
35778;BME280;21899;42.662;23.316;2023-01-29T11:38:28;94658.00;;;1.00;100.00
35778;BME280;21899;42.662;23.316;2023-01-29T11:41:13;94637.13;;;1.16;100.00
35778;BME280;21899;42.662;23.316;2023-01-29T11:43:39;94641.03;;;1.39;100.00
35778;BME280;21899;42.662;23.316;2023-01-29T11:46:06;94642.22;;;1.50;100.00
35778;BME280;21899;42.662;23.316;2023-01-29T11:48:42;94643.66;;;1.68;100.00
35778;BME280;21899;42.662;23.316;2023-01-29T11:51:11;94638.38;;;1.68;100.00
35778;BME280;21899;42.662;23.316;2023-01-29T11:53:49;94621.91;;;1.71;100.00
35778;BME280;21899;42.662;23.316;2023-01-29T11:58:41;94635.41;;;1.70;100.00
35778;BME280;21899;42.662;23.316;2023-01-29T12:01:08;94626.13;;;1.64;100.00
35778;BME280;21899;42.662;23.316;2023-01-29T12:03:39;94632.19;;;1.64;100.00
35778;BME280;21899;42.662;23.316;2023-01-29T12:06:17;94629.59;;;1.56;100.00
35778;BME280;21899;42.662;23.316;2023-01-29T12:08:52;94623.72;;;1.59;100.00
35778;BME280;21899;42.662;23.316;2023-01-29T12:11:32;94629.59;;;1.56;100.00
35778;BME280;21899;42.662;23.316;2023-01-29T12:14:00;94623.56;;;1.55;100.00
35778;BME280;21899;42.662;23.316;2023-01-29T12:16:30;94622.53;;;1.68;100.00
35778;BME280;21899;42.662;23.316;2023-01-29T12:19:15;94623.44;;;1.72;100.00
35778;BME280;21899;42.662;23.316;2023-01-29T12:26:59;94634.22;;;1.38;100.00
35778;BME280;21899;42.662;23.316;2023-01-29T12:29:36;94643.63;;;1.27;100.00
35778;BME280;21899;42.662;23.316;2023-01-29T12:32:14;94630.84;;;1.08;100.00
35778;BME280;21899;42.662;23.316;2023-01-29T12:34:47;94628.28;;;1.20;100.00
35778;BME280;21899;42.662;23.316;2023-01-29T12:37:28;94640.09;;;1.14;100.00
35778;BME280;21899;42.662;23.316;2023-01-29T12:39:59;94626.78;;;1.11;100.00
35778;BME280;21899;42.662;23.316;2023-01-29T12:42:26;94638.78;;;1.29;100.00
35778;BME280;21899;42.662;23.316;2023-01-29T12:44:52;94635.50;;;1.32;100.00
35778;BME280;21899;42.662;23.316;2023-01-29T12:52:51;94636.44;;;1.57;100.00
35778;BME280;21899;42.662;23.316;2023-01-29T12:55:25;94638.22;;;1.44;100.00
35778;BME280;21899;42.662;23.316;2023-01-29T12:57:57;94618.91;;;1.31;100.00
35778;BME280;21899;42.662;23.316;2023-01-29T13:00:35;94635.75;;;1.39;100.00
35778;BME280;21899;42.662;23.316;2023-01-29T13:05:56;94635.63;;;1.35;100.00
35778;BME280;21899;42.662;23.316;2023-01-29T13:08:47;94637.97;;;1.37;100.00
35778;BME280;21899;42.662;23.316;2023-01-29T13:11:23;94628.31;;;1.41;100.00
35778;BME280;21899;42.662;23.316;2023-01-29T13:13:58;94614.59;;;1.27;100.00
35778;BME280;21899;42.662;23.316;2023-01-29T13:16:29;94613.03;;;1.26;100.00
35778;BME280;21899;42.662;23.316;2023-01-29T13:19:01;94625.34;;;1.22;100.00
35778;BME280;21899;42.662;23.316;2023-01-29T13:21:35;94626.16;;;1.14;100.00
35778;BME280;21899;42.662;23.316;2023-01-29T13:26:31;94634.31;;;1.21;100.00
35778;BME280;21899;42.662;23.316;2023-01-29T13:28:58;94627.59;;;1.32;100.00
35778;BME280;21899;42.662;23.316;2023-01-29T13:31:37;94620.72;;;1.19;100.00
35778;BME280;21899;42.662;23.316;2023-01-29T13:34:18;94638.94;;;1.24;100.00
35778;BME280;21899;42.662;23.316;2023-01-29T13:36:50;94637.13;;;1.16;100.00
35778;BME280;21899;42.662;23.316;2023-01-29T13:39:21;94635.16;;;1.13;100.00
35778;BME280;21899;42.662;23.316;2023-01-29T13:41:49;94644.63;;;1.14;100.00
35778;BME280;21899;42.662;23.316;2023-01-29T13:44:24;94639.72;;;1.04;100.00
35778;BME280;21899;42.662;23.316;2023-01-29T13:47:08;94646.50;;;1.05;100.00
35778;BME280;21899;42.662;23.316;2023-01-29T13:49:42;94640.28;;;0.80;100.00
35778;BME280;21899;42.662;23.316;2023-01-29T13:52:19;94661.72;;;0.62;100.00
35778;BME280;21899;42.662;23.316;2023-01-29T13:54:51;94655.84;;;0.56;100.00
35778;BME280;21899;42.662;23.316;2023-01-29T13:59:57;94662.38;;;0.42;100.00
35778;BME280;21899;42.662;23.316;2023-01-29T14:04:48;94642.75;;;0.31;100.00
35778;BME280;21899;42.662;23.316;2023-01-29T14:12:40;94652.19;;;0.32;100.00
35778;BME280;21899;42.662;23.316;2023-01-29T14:15:35;94664.09;;;0.38;100.00
35778;BME280;21899;42.662;23.316;2023-01-29T14:20:38;94684.25;;;0.17;100.00
35778;BME280;21899;42.662;23.316;2023-01-29T14:23:06;94665.84;;;0.08;100.00
35778;BME280;21899;42.662;23.316;2023-01-29T14:25:34;94680.41;;;0.06;100.00
35778;BME280;21899;42.662;23.316;2023-01-29T14:28:03;94673.91;;;-0.06;100.00
35778;BME280;21899;42.662;23.316;2023-01-29T14:30:38;94682.88;;;0.11;100.00
35778;BME280;21899;42.662;23.316;2023-01-29T14:33:05;94688.28;;;0.23;100.00
35778;BME280;21899;42.662;23.316;2023-01-29T14:35:48;94684.25;;;0.34;100.00
35778;BME280;21899;42.662;23.316;2023-01-29T14:38:15;94692.59;;;0.36;100.00
35778;BME280;21899;42.662;23.316;2023-01-29T14:40:41;94685.16;;;0.38;100.00
35778;BME280;21899;42.662;23.316;2023-01-29T14:43:17;94695.97;;;0.45;100.00
35778;BME280;21899;42.662;23.316;2023-01-29T14:45:46;94694.44;;;0.35;100.00
35778;BME280;21899;42.662;23.316;2023-01-29T14:48:44;94701.72;;;0.38;100.00
35778;BME280;21899;42.662;23.316;2023-01-29T14:51:15;94692.59;;;0.36;100.00
35778;BME280;21899;42.662;23.316;2023-01-29T14:56:17;94688.22;;;0.48;100.00
35778;BME280;21899;42.662;23.316;2023-01-29T14:58:53;94688.69;;;0.50;100.00
35778;BME280;21899;42.662;23.316;2023-01-29T15:01:34;94690.28;;;0.43;100.00
35778;BME280;21899;42.662;23.316;2023-01-29T15:04:16;94692.28;;;0.46;100.00
35778;BME280;21899;42.662;23.316;2023-01-29T15:06:47;94700.00;;;0.51;100.00
35778;BME280;21899;42.662;23.316;2023-01-29T15:10:03;94696.28;;;0.52;100.00
35778;BME280;21899;42.662;23.316;2023-01-29T15:14:49;94691.50;;;0.37;100.00